Time;durP1;ratioP1;P1;durP2;ratioP2;P2;SDS_P1;SDS_P2;PMS_P1;PMS_P2;Temp;Humidity;BMP_temperature;BMP_pressure;BME280_temperature;BME280_humidity;BME280_pressure;Samples;Min_cycle;Max_cycle;Signal;HPM_P1;HPM_P2
2024/02/06 00:02:24;;;;;;;6.90;5.60;;;11.80;99.90;;;;;;5110817;27;20552;-78
2024/02/06 00:04:52;;;;;;;12.77;7.72;;;11.90;99.90;;;;;;5111949;27;20218;-76
2024/02/06 00:07:19;;;;;;;12.35;8.88;;;11.90;99.90;;;;;;5112376;27;20229;-76
2024/02/06 00:09:48;;;;;;;7.97;7.18;;;11.90;99.90;;;;;;5104910;27;20234;-77
2024/02/06 00:12:15;;;;;;;17.15;11.13;;;11.90;99.90;;;;;;5112279;27;20218;-76
2024/02/06 00:14:42;;;;;;;15.20;12.00;;;11.90;99.90;;;;;;5104585;27;20529;-76
2024/02/06 00:17:13;;;;;;;37.70;20.25;;;11.80;99.90;;;;;;5102553;27;20222;-76
2024/02/06 00:19:41;;;;;;;10.70;7.25;;;11.80;99.90;;;;;;5122086;27;20223;-77
2024/02/06 00:22:11;;;;;;;11.63;8.13;;;11.80;99.90;;;;;;5108360;27;20218;-78
2024/02/06 00:24:44;;;;;;;15.63;12.75;;;11.80;99.90;;;;;;5113613;27;20268;-76
2024/02/06 00:27:16;;;;;;;65.55;45.08;;;11.80;99.90;;;;;;5112558;27;20219;-78
2024/02/06 00:29:43;;;;;;;14.88;9.23;;;11.80;99.90;;;;;;5113073;27;20215;-78
2024/02/06 00:32:13;;;;;;;25.33;14.65;;;11.90;99.90;;;;;;5106566;27;20218;-77
2024/02/06 00:34:42;;;;;;;29.02;17.17;;;11.80;99.90;;;;;;5092376;28;20219;-78
2024/02/06 00:37:09;;;;;;;11.35;8.15;;;11.80;99.90;;;;;;5106318;27;20257;-78
2024/02/06 00:39:36;;;;;;;15.70;11.45;;;11.70;99.90;;;;;;5112915;27;20225;-78
2024/02/06 00:42:03;;;;;;;29.58;22.98;;;11.80;99.90;;;;;;5112263;27;20223;-78
2024/02/06 00:44:34;;;;;;;22.42;14.55;;;11.80;99.90;;;;;;5111464;27;20234;-77
2024/02/06 00:47:02;;;;;;;19.38;16.40;;;11.70;99.90;;;;;;5099512;28;20238;-76
2024/02/06 00:49:29;;;;;;;16.40;11.35;;;11.70;99.90;;;;;;5111705;27;20238;-77
2024/02/06 00:51:57;;;;;;;18.83;13.43;;;11.80;99.90;;;;;;5112879;27;20223;-76
2024/02/06 00:54:24;;;;;;;26.13;18.13;;;11.80;99.90;;;;;;5112942;27;20230;-77
2024/02/06 00:56:51;;;;;;;12.75;8.93;;;11.70;99.90;;;;;;5114980;27;20218;-77
2024/02/06 00:59:18;;;;;;;10.60;6.78;;;11.70;99.90;;;;;;5116226;27;20551;-76
2024/02/06 01:01:47;;;;;;;7.07;5.20;;;11.70;99.90;;;;;;5109494;27;20226;-78
2024/02/06 01:04:15;;;;;;;11.65;8.02;;;11.70;99.90;;;;;;5114964;27;20261;-76
2024/02/06 01:06:42;;;;;;;37.50;20.63;;;11.70;99.90;;;;;;5116508;27;20298;-78
2024/02/06 01:09:14;;;;;;;11.43;8.43;;;11.70;99.90;;;;;;5115983;27;20226;-76
2024/02/06 01:11:44;;;;;;;9.38;6.13;;;11.70;99.90;;;;;;5116101;27;20219;-76
2024/02/06 01:14:11;;;;;;;11.55;8.80;;;11.70;99.90;;;;;;5116368;27;20222;-78
2024/02/06 01:16:38;;;;;;;10.15;7.15;;;11.70;99.90;;;;;;5116023;27;20307;-78
2024/02/06 01:19:11;;;;;;;7.78;5.30;;;11.60;99.90;;;;;;5116527;27;20555;-75
2024/02/06 01:21:38;;;;;;;5.47;4.68;;;11.60;99.90;;;;;;5116095;27;20222;-78
2024/02/06 01:24:07;;;;;;;10.35;4.65;;;11.70;99.90;;;;;;5116011;27;20292;-76
2024/02/06 01:26:35;;;;;;;10.55;7.18;;;11.70;99.90;;;;;;5116295;27;20222;-78
2024/02/06 01:29:04;;;;;;;8.80;6.30;;;11.70;99.90;;;;;;5116181;27;20222;-78
2024/02/06 01:31:31;;;;;;;19.25;12.20;;;11.60;99.90;;;;;;5115906;27;20777;-77
2024/02/06 01:34:05;;;;;;;8.38;5.57;;;11.70;99.90;;;;;;5115950;27;20245;-75
2024/02/06 01:36:34;;;;;;;16.45;12.52;;;11.70;99.90;;;;;;5115756;27;20476;-77
2024/02/06 01:39:01;;;;;;;14.90;12.15;;;11.70;99.90;;;;;;5116263;27;20237;-76
2024/02/06 01:41:30;;;;;;;11.02;7.75;;;11.70;99.90;;;;;;5115637;27;20223;-76
2024/02/06 01:43:59;;;;;;;11.48;6.63;;;11.70;99.90;;;;;;5115578;27;20247;-78
2024/02/06 01:46:46;;;;;;;15.18;9.13;;;11.70;99.90;;;;;;5113378;27;20226;-76
2024/02/06 01:49:16;;;;;;;11.98;10.07;;;11.70;99.90;;;;;;5115769;27;20657;-75
2024/02/06 01:51:47;;;;;;;15.48;10.82;;;11.70;99.90;;;;;;5116065;27;20234;-76
2024/02/06 01:54:14;;;;;;;11.98;9.45;;;11.60;99.90;;;;;;5115743;27;20234;-77
2024/02/06 01:56:43;;;;;;;10.02;7.45;;;11.60;99.90;;;;;;5115308;27;20223;-77
2024/02/06 01:59:12;;;;;;;10.02;7.07;;;11.60;99.90;;;;;;5115925;27;20275;-76
2024/02/06 02:01:39;;;;;;;8.98;6.85;;;11.60;99.90;;;;;;5114653;27;20254;-76
2024/02/06 02:04:07;;;;;;;12.68;9.15;;;11.60;99.90;;;;;;5115495;27;20226;-78
2024/02/06 02:06:34;;;;;;;9.48;6.25;;;11.70;99.90;;;;;;5106637;27;20288;-78
2024/02/06 02:09:01;;;;;;;15.90;10.65;;;11.70;99.90;;;;;;5115489;27;20219;-76
2024/02/06 02:11:28;;;;;;;10.00;7.90;;;11.80;99.90;;;;;;5115000;27;20226;-77
2024/02/06 02:13:56;;;;;;;51.03;36.10;;;11.90;99.90;;;;;;5114820;27;20728;-78
2024/02/06 02:16:24;;;;;;;13.18;8.88;;;11.90;99.90;;;;;;5115376;27;20689;-76
2024/02/06 02:18:51;;;;;;;10.00;6.55;;;11.90;99.90;;;;;;5111980;27;20222;-76
2024/02/06 02:21:22;;;;;;;6.35;5.20;;;11.90;99.90;;;;;;5114407;27;20235;-76
2024/02/06 02:23:52;;;;;;;24.92;19.17;;;12.00;99.90;;;;;;5114542;27;20318;-78
2024/02/06 02:26:20;;;;;;;24.70;18.83;;;11.90;99.90;;;;;;5115339;27;20226;-78
2024/02/06 02:28:51;;;;;;;6.68;6.07;;;11.90;99.90;;;;;;5113897;27;20261;-78
2024/02/06 02:31:20;;;;;;;56.08;40.85;;;12.00;99.90;;;;;;5115566;27;20248;-77
2024/02/06 02:33:47;;;;;;;11.27;7.35;;;11.90;99.90;;;;;;5114110;27;20573;-76
2024/02/06 02:36:16;;;;;;;22.25;14.90;;;11.90;99.90;;;;;;5114834;27;20248;-77
2024/02/06 02:38:45;;;;;;;8.02;7.20;;;11.90;99.90;;;;;;5114487;27;20264;-76
2024/02/06 02:41:12;;;;;;;36.10;22.95;;;11.90;99.90;;;;;;5115000;27;20218;-76
2024/02/06 02:43:40;;;;;;;8.57;6.80;;;11.90;99.90;;;;;;5113782;27;20276;-76
2024/02/06 02:46:07;;;;;;;35.88;22.77;;;11.90;99.90;;;;;;5114757;27;20621;-76
2024/02/06 02:48:40;;;;;;;19.92;10.50;;;11.80;99.90;;;;;;5114617;27;20255;-78
2024/02/06 02:51:07;;;;;;;18.77;14.15;;;11.80;99.90;;;;;;5114307;27;20625;-77
2024/02/06 02:53:34;;;;;;;12.65;9.60;;;11.70;99.90;;;;;;5113972;27;20226;-78
2024/02/06 02:56:02;;;;;;;58.95;34.78;;;11.70;99.90;;;;;;5114504;27;20223;-76
2024/02/06 02:58:29;;;;;;;17.63;12.85;;;11.80;99.90;;;;;;5118432;27;20297;-76
2024/02/06 03:00:56;;;;;;;15.77;10.95;;;11.80;99.90;;;;;;5116046;27;20381;-76
2024/02/06 03:03:23;;;;;;;116.32;79.80;;;11.80;99.90;;;;;;5114466;27;20229;-76
2024/02/06 03:05:50;;;;;;;13.00;7.55;;;11.80;99.90;;;;;;5114027;27;20218;-76
2024/02/06 03:08:17;;;;;;;13.07;11.40;;;11.80;99.90;;;;;;5114747;27;20246;-76
2024/02/06 03:10:44;;;;;;;20.48;9.50;;;11.70;99.90;;;;;;5114450;27;20214;-77
2024/02/06 03:13:18;;;;;;;17.13;12.88;;;11.80;99.90;;;;;;5113286;27;20240;-78
2024/02/06 03:15:45;;;;;;;12.77;9.77;;;11.80;99.90;;;;;;5114187;27;20222;-78
2024/02/06 03:18:15;;;;;;;10.70;9.50;;;11.80;99.90;;;;;;5113714;27;20219;-76
2024/02/06 03:20:42;;;;;;;16.67;12.98;;;11.80;99.90;;;;;;5105241;27;20223;-76
2024/02/06 03:23:10;;;;;;;10.85;8.02;;;11.70;99.90;;;;;;5113581;27;20218;-76
2024/02/06 03:25:36;;;;;;;26.17;17.88;;;11.70;99.90;;;;;;5116322;27;20226;-77
2024/02/06 03:28:04;;;;;;;10.27;8.80;;;11.70;99.90;;;;;;5115410;27;20223;-77
2024/02/06 03:30:35;;;;;;;9.88;8.13;;;11.70;99.90;;;;;;5113898;27;20313;-78
2024/02/06 03:33:02;;;;;;;24.42;16.38;;;11.70;99.90;;;;;;5113693;27;20244;-78
2024/02/06 03:35:32;;;;;;;19.38;13.15;;;11.70;99.90;;;;;;5114193;27;20230;-78
2024/02/06 03:37:59;;;;;;;14.73;11.02;;;11.60;99.90;;;;;;5113573;27;20591;-77
2024/02/06 03:40:29;;;;;;;8.73;7.72;;;11.60;99.90;;;;;;5113612;27;20728;-76
2024/02/06 03:42:56;;;;;;;16.25;10.63;;;11.60;99.90;;;;;;5113831;27;20226;-78
2024/02/06 03:45:23;;;;;;;10.02;7.25;;;11.60;99.90;;;;;;5113408;27;20225;-76
2024/02/06 03:47:51;;;;;;;9.80;7.47;;;11.60;99.90;;;;;;5114012;27;20246;-77
2024/02/06 03:50:18;;;;;;;11.55;7.30;;;11.60;99.90;;;;;;5113279;27;20226;-76
2024/02/06 03:52:45;;;;;;;9.85;8.52;;;11.60;99.90;;;;;;5113765;27;20226;-78
2024/02/06 03:55:13;;;;;;;13.50;10.98;;;11.50;99.90;;;;;;5113261;27;20237;-76
2024/02/06 03:57:42;;;;;;;21.20;14.70;;;11.50;99.90;;;;;;5113917;27;20219;-76
2024/02/06 04:00:10;;;;;;;11.90;8.40;;;11.50;99.90;;;;;;5113172;27;20235;-77
2024/02/06 04:02:40;;;;;;;13.55;8.52;;;11.50;99.90;;;;;;5113746;27;20218;-76
2024/02/06 04:05:09;;;;;;;10.35;7.68;;;11.60;99.90;;;;;;5113724;27;20276;-77
2024/02/06 04:07:36;;;;;;;12.52;7.80;;;11.60;99.90;;;;;;5113799;27;20222;-76
2024/02/06 04:10:05;;;;;;;12.02;7.78;;;11.60;99.90;;;;;;5113865;27;20214;-76
2024/02/06 04:12:32;;;;;;;14.65;8.73;;;11.60;99.90;;;;;;5104767;27;20301;-76
2024/02/06 04:14:59;;;;;;;6.47;5.88;;;11.70;99.90;;;;;;5113547;27;20221;-78
2024/02/06 04:17:26;;;;;;;15.82;10.40;;;11.70;99.90;;;;;;5113159;27;20245;-78
2024/02/06 04:19:54;;;;;;;7.55;6.45;;;11.60;99.90;;;;;;5112835;27;20218;-78
2024/02/06 04:22:24;;;;;;;22.60;15.48;;;11.60;99.90;;;;;;5104000;27;20750;-78
2024/02/06 04:24:51;;;;;;;15.48;10.90;;;11.70;99.90;;;;;;5113851;27;20237;-75
2024/02/06 04:27:18;;;;;;;13.43;10.20;;;11.70;99.90;;;;;;5112306;27;20222;-76
2024/02/06 04:29:47;;;;;;;21.45;13.75;;;11.70;99.90;;;;;;5113410;27;20218;-76
2024/02/06 04:32:29;;;;;;;9.15;6.10;;;11.60;99.90;;;;;;5115228;27;20240;-76
2024/02/06 04:35:04;;;;;;;21.50;13.68;;;11.70;99.90;;;;;;5117646;27;20230;-78
2024/02/06 04:37:35;;;;;;;16.77;11.57;;;11.70;99.90;;;;;;5117007;27;20219;-77
2024/02/06 04:40:02;;;;;;;27.30;15.57;;;11.70;99.90;;;;;;5117427;27;20223;-76
2024/02/06 04:42:29;;;;;;;9.05;6.68;;;11.60;99.90;;;;;;5108534;27;20223;-76
2024/02/06 04:44:57;;;;;;;10.48;6.70;;;11.70;99.90;;;;;;5126323;27;20217;-76
2024/02/06 04:50:23;;;;;;;25.17;18.20;;;11.70;99.90;;;;;;5114536;27;20340;-78
2024/02/06 04:52:52;;;;;;;24.75;16.00;;;11.70;99.90;;;;;;5116963;27;20287;-76
2024/02/06 04:55:19;;;;;;;16.02;7.90;;;11.70;99.90;;;;;;5116868;27;20618;-76
2024/02/06 04:57:46;;;;;;;9.02;6.85;;;11.70;99.90;;;;;;5116747;27;20215;-76
2024/02/06 05:00:17;;;;;;;11.40;8.52;;;11.70;99.90;;;;;;5116815;27;20233;-78
2024/02/06 05:02:48;;;;;;;10.77;7.80;;;11.70;99.90;;;;;;5116526;27;20234;-76
2024/02/06 05:05:19;;;;;;;6.72;5.07;;;11.70;99.90;;;;;;5117053;27;20297;-76
2024/02/06 05:07:48;;;;;;;17.08;11.20;;;11.70;99.90;;;;;;5115122;27;20260;-76
2024/02/06 05:10:17;;;;;;;4.65;4.22;;;11.70;99.90;;;;;;5116939;27;20716;-76
2024/02/06 05:12:44;;;;;;;7.88;6.32;;;11.60;99.90;;;;;;5115469;27;20676;-78
2024/02/06 05:15:15;;;;;;;5.45;4.70;;;11.70;99.90;;;;;;5116348;27;20222;-78
2024/02/06 05:17:42;;;;;;;4.82;4.35;;;11.50;99.90;;;;;;5116105;27;20237;-77
2024/02/06 05:20:14;;;;;;;34.10;25.50;;;11.50;99.90;;;;;;5106881;27;20219;-76
2024/02/06 05:22:41;;;;;;;9.68;8.48;;;11.50;99.90;;;;;;5115444;27;20257;-76
2024/02/06 05:25:08;;;;;;;8.10;6.10;;;11.50;99.90;;;;;;5116644;27;20728;-76
2024/02/06 05:27:39;;;;;;;6.93;5.28;;;11.50;99.90;;;;;;5115435;27;20230;-76
2024/02/06 05:30:11;;;;;;;6.28;4.00;;;11.60;99.90;;;;;;5115876;27;20226;-76
2024/02/06 05:32:38;;;;;;;13.07;10.10;;;11.60;99.90;;;;;;5113329;27;20238;-76
2024/02/06 05:35:07;;;;;;;21.67;16.40;;;11.60;99.90;;;;;;5125583;27;20237;-76
2024/02/06 05:37:34;;;;;;;7.90;5.88;;;11.60;99.90;;;;;;5119823;27;20218;-76
2024/02/06 05:40:02;;;;;;;6.75;6.15;;;11.60;99.90;;;;;;5106486;27;20315;-77
2024/02/06 05:42:29;;;;;;;34.88;23.45;;;11.60;99.90;;;;;;5127691;27;20313;-78
2024/02/06 05:44:58;;;;;;;10.98;7.40;;;11.60;99.90;;;;;;5114987;27;20636;-78
2024/02/06 05:47:26;;;;;;;9.02;7.22;;;11.60;99.90;;;;;;5116182;27;20219;-77
2024/02/06 05:49:53;;;;;;;5.47;4.10;;;11.60;99.90;;;;;;5115152;27;20296;-76
2024/02/06 05:52:20;;;;;;;11.88;8.73;;;11.60;99.90;;;;;;5116008;27;20251;-76
2024/02/06 05:54:47;;;;;;;7.68;5.55;;;11.60;99.90;;;;;;5110872;27;20763;-77
2024/02/06 05:57:22;;;;;;;29.10;19.42;;;11.60;99.90;;;;;;5116278;27;20314;-76
2024/02/06 05:59:52;;;;;;;5.13;4.53;;;11.60;99.90;;;;;;5115207;27;20675;-78
2024/02/06 06:02:20;;;;;;;11.45;8.85;;;11.60;99.90;;;;;;5115507;27;20227;-77
2024/02/06 06:04:49;;;;;;;7.93;6.20;;;11.60;99.90;;;;;;5115617;27;20234;-77
2024/02/06 06:07:16;;;;;;;20.08;13.32;;;11.70;99.90;;;;;;5114050;27;20293;-76
2024/02/06 06:09:45;;;;;;;5.07;4.15;;;11.70;99.90;;;;;;5115581;27;20223;-76
2024/02/06 06:12:18;;;;;;;8.43;5.93;;;11.70;99.90;;;;;;5115479;27;20222;-76
2024/02/06 06:14:45;;;;;;;15.10;9.15;;;11.70;99.90;;;;;;5124318;27;20229;-75
2024/02/06 06:17:15;;;;;;;8.20;6.20;;;11.70;99.90;;;;;;5116272;27;20580;-76
2024/02/06 06:19:44;;;;;;;10.30;9.25;;;11.70;99.90;;;;;;5115584;27;20222;-77
2024/02/06 06:22:12;;;;;;;6.90;5.65;;;11.60;99.90;;;;;;5114709;27;20226;-76
2024/02/06 06:24:45;;;;;;;9.73;6.40;;;11.60;99.90;;;;;;5115262;27;20258;-76
2024/02/06 06:27:12;;;;;;;6.47;5.28;;;11.70;99.90;;;;;;5114741;27;20632;-76
2024/02/06 06:29:39;;;;;;;12.65;7.25;;;11.70;99.90;;;;;;5114878;27;20683;-76
2024/02/06 06:32:07;;;;;;;5.50;4.90;;;11.70;99.90;;;;;;5114824;27;20256;-76
2024/02/06 06:34:34;;;;;;;10.55;5.40;;;11.70;99.90;;;;;;5115187;27;20309;-79
2024/02/06 06:37:04;;;;;;;5.70;4.28;;;11.70;99.90;;;;;;5105003;27;20219;-78
2024/02/06 06:39:41;;;;;;;;;;;;;;;;;;;;;
2024/02/06 06:42:15;;;;;;;4.95;3.80;;;11.80;99.90;;;;;;5114304;27;20557;-78
2024/02/06 06:44:42;;;;;;;21.42;13.73;;;11.90;99.90;;;;;;5114890;27;20222;-76
2024/02/06 06:47:11;;;;;;;6.43;4.05;;;11.80;99.90;;;;;;5114321;27;20241;-76
2024/02/06 06:49:55;;;;;;;5.07;3.88;;;11.90;99.90;;;;;;5114749;27;20570;-78
2024/02/06 06:52:23;;;;;;;11.10;7.70;;;11.90;99.90;;;;;;5114259;27;20226;-76
2024/02/06 06:54:50;;;;;;;12.90;7.45;;;11.80;99.90;;;;;;5114179;27;20548;-76
2024/02/06 06:57:20;;;;;;;9.45;8.02;;;11.90;99.90;;;;;;5114306;27;20575;-76
2024/02/06 06:59:47;;;;;;;3.20;2.95;;;11.90;99.90;;;;;;5114557;27;20221;-76
2024/02/06 07:02:14;;;;;;;6.13;3.85;;;11.80;99.90;;;;;;5113828;27;20234;-76
2024/02/06 07:04:41;;;;;;;4.90;4.20;;;11.80;99.90;;;;;;5114137;27;20218;-76
2024/02/06 07:07:08;;;;;;;8.95;4.20;;;11.80;99.90;;;;;;5113934;27;20222;-76
2024/02/06 07:09:40;;;;;;;7.50;6.55;;;11.80;99.90;;;;;;5114159;27;20214;-76
2024/02/06 07:12:07;;;;;;;7.07;4.32;;;11.90;99.90;;;;;;5113772;27;20687;-77
2024/02/06 07:14:37;;;;;;;5.30;4.70;;;11.90;99.90;;;;;;5114191;27;20265;-76
2024/02/06 07:17:05;;;;;;;4.85;4.35;;;11.90;99.90;;;;;;5114235;27;20214;-78
2024/02/06 07:19:32;;;;;;;5.28;4.75;;;11.90;99.90;;;;;;5113672;27;20214;-77
2024/02/06 07:22:00;;;;;;;10.50;6.95;;;11.90;99.90;;;;;;5118857;27;20245;-78
2024/02/06 07:24:27;;;;;;;5.03;3.20;;;11.90;99.90;;;;;;5109761;27;20233;-76
2024/02/06 07:26:56;;;;;;;4.63;3.40;;;11.90;99.90;;;;;;5113958;27;20221;-78
2024/02/06 07:29:26;;;;;;;4.20;3.80;;;11.90;99.90;;;;;;5112862;27;20225;-76
2024/02/06 07:31:54;;;;;;;8.30;4.82;;;11.90;99.90;;;;;;5114013;27;20218;-76
2024/02/06 07:34:25;;;;;;;4.65;3.83;;;12.00;99.90;;;;;;5112985;27;20230;-78
2024/02/06 07:36:53;;;;;;;5.20;4.32;;;11.90;99.90;;;;;;5114304;27;20279;-76
2024/02/06 07:39:22;;;;;;;14.32;10.82;;;12.00;99.90;;;;;;5112514;27;20218;-76
2024/02/06 07:41:49;;;;;;;17.73;10.00;;;11.90;99.90;;;;;;5114493;27;20301;-78
2024/02/06 07:44:21;;;;;;;7.07;4.22;;;11.90;99.90;;;;;;5113363;27;20222;-78
2024/02/06 07:46:48;;;;;;;11.55;7.13;;;12.00;99.90;;;;;;5113791;27;20317;-78
2024/02/06 07:49:15;;;;;;;4.65;3.95;;;12.00;99.90;;;;;;5119568;27;20703;-78
2024/02/06 07:51:48;;;;;;;6.18;4.43;;;12.00;99.90;;;;;;5113910;27;20278;-77
2024/02/06 07:54:18;;;;;;;11.18;7.43;;;12.00;99.90;;;;;;5112290;27;20691;-77
2024/02/06 07:56:45;;;;;;;4.50;3.47;;;12.10;99.90;;;;;;5117770;27;20230;-77
2024/02/06 07:59:14;;;;;;;7.05;3.47;;;12.10;99.90;;;;;;5113474;27;20301;-75
2024/02/06 08:01:43;;;;;;;6.30;5.18;;;12.10;99.90;;;;;;5113830;27;20227;-75
2024/02/06 08:04:10;;;;;;;3.92;2.92;;;12.10;99.90;;;;;;5103920;27;20233;-75
2024/02/06 08:06:37;;;;;;;6.63;4.95;;;12.10;99.90;;;;;;5132088;27;20564;-77
2024/02/06 08:09:05;;;;;;;4.63;2.92;;;12.10;99.90;;;;;;5117828;27;20671;-77
2024/02/06 08:11:32;;;;;;;5.97;3.88;;;12.10;99.90;;;;;;5117565;27;20225;-77
2024/02/06 08:14:01;;;;;;;6.40;5.10;;;12.10;99.90;;;;;;5117309;27;20565;-77
2024/02/06 08:16:28;;;;;;;4.63;3.35;;;12.10;99.90;;;;;;5117169;27;20303;-77
2024/02/06 08:18:59;;;;;;;4.93;3.00;;;12.10;99.90;;;;;;5117169;27;20233;-77
2024/02/06 08:21:26;;;;;;;6.53;3.90;;;12.20;99.90;;;;;;5117590;27;20222;-77
2024/02/06 08:23:54;;;;;;;4.25;3.65;;;12.20;99.90;;;;;;5117786;27;20234;-77
2024/02/06 08:26:24;;;;;;;4.25;2.97;;;12.20;99.90;;;;;;5117157;27;20218;-77
2024/02/06 08:28:52;;;;;;;4.78;4.00;;;12.20;99.90;;;;;;5117571;27;20249;-77
2024/02/06 08:31:22;;;;;;;2.63;2.42;;;12.20;99.90;;;;;;5116714;27;20230;-77
2024/02/06 08:33:50;;;;;;;5.75;3.25;;;12.30;99.90;;;;;;5117327;27;20610;-77
2024/02/06 08:36:23;;;;;;;5.43;3.70;;;12.30;99.90;;;;;;5117063;27;20226;-77
2024/02/06 08:38:50;;;;;;;5.90;4.05;;;12.30;99.90;;;;;;5117240;27;20215;-77
2024/02/06 08:41:17;;;;;;;2.88;2.47;;;12.40;99.90;;;;;;5116417;27;20237;-77
2024/02/06 08:43:44;;;;;;;4.38;3.33;;;12.40;99.90;;;;;;5117295;27;20226;-79
2024/02/06 08:46:12;;;;;;;4.28;3.33;;;12.40;99.90;;;;;;5116870;27;20688;-77
2024/02/06 08:48:39;;;;;;;6.60;4.70;;;12.40;99.90;;;;;;5116656;27;20229;-75
2024/02/06 08:51:06;;;;;;;3.90;3.40;;;12.40;99.90;;;;;;5117230;27;20223;-75
2024/02/06 08:53:37;;;;;;;4.10;3.80;;;12.40;99.90;;;;;;5116403;27;20230;-75
2024/02/06 08:56:07;;;;;;;3.92;3.60;;;12.40;99.90;;;;;;5117127;27;20246;-80
2024/02/06 08:58:34;;;;;;;6.43;3.72;;;12.50;99.90;;;;;;5116843;27;20250;-77
2024/02/06 09:01:04;;;;;;;5.88;4.30;;;12.40;99.90;;;;;;5117003;27;20215;-77
2024/02/06 09:03:36;;;;;;;5.20;3.38;;;12.30;99.90;;;;;;5120079;27;20254;-79
2024/02/06 09:06:05;;;;;;;8.00;4.35;;;12.40;99.90;;;;;;5117079;27;20672;-78
2024/02/06 09:08:33;;;;;;;9.43;5.65;;;12.40;99.90;;;;;;5116753;27;20218;-77
2024/02/06 09:11:01;;;;;;;7.63;4.68;;;12.40;99.90;;;;;;5116234;27;20283;-79
2024/02/06 09:13:28;;;;;;;7.93;5.00;;;12.50;99.90;;;;;;5116146;27;20231;-78
2024/02/06 09:15:55;;;;;;;4.95;4.45;;;12.50;99.90;;;;;;5116704;27;20222;-75
2024/02/06 09:18:22;;;;;;;4.90;4.03;;;12.50;99.90;;;;;;5115695;27;20649;-75
2024/02/06 09:20:49;;;;;;;6.57;4.43;;;12.50;99.90;;;;;;5116787;27;20616;-75
2024/02/06 09:23:16;;;;;;;4.97;3.63;;;12.60;99.90;;;;;;5115449;27;20222;-76
2024/02/06 09:25:45;;;;;;;5.45;3.60;;;12.60;99.90;;;;;;5116476;27;20456;-76
2024/02/06 09:28:15;;;;;;;9.38;3.28;;;12.60;99.90;;;;;;5115605;27;20223;-76
2024/02/06 09:30:42;;;;;;;5.70;3.50;;;12.70;99.90;;;;;;5116308;27;20551;-76
2024/02/06 09:33:12;;;;;;;3.47;2.80;;;12.70;99.90;;;;;;5115744;27;20573;-76
2024/02/06 09:35:39;;;;;;;4.03;2.95;;;12.70;99.90;;;;;;5116451;27;20231;-75
2024/02/06 09:38:06;;;;;;;6.10;3.83;;;12.80;99.90;;;;;;5115337;27;20223;-75
2024/02/06 09:40:33;;;;;;;3.15;2.63;;;12.80;99.90;;;;;;5116246;27;20483;-76
2024/02/06 09:43:04;;;;;;;7.88;4.60;;;12.80;99.90;;;;;;5116247;27;20684;-77
2024/02/06 09:45:37;;;;;;;3.55;2.92;;;12.80;99.90;;;;;;5107357;27;20279;-77
2024/02/06 09:48:05;;;;;;;6.88;3.03;;;12.80;99.90;;;;;;5116199;27;20222;-79
2024/02/06 09:53:13;;;;;;;2.45;1.98;;;12.80;99.90;;;;;;5105585;27;20223;-77
2024/02/06 09:55:43;;;;;;;4.30;3.37;;;12.80;99.90;;;;;;5115815;27;20676;-77
2024/02/06 09:58:11;;;;;;;4.50;2.47;;;12.80;99.90;;;;;;5115867;27;20548;-77
2024/02/06 10:00:41;;;;;;;3.88;3.33;;;12.80;99.90;;;;;;5115857;27;20222;-77
2024/02/06 10:03:13;;;;;;;4.97;3.27;;;12.90;99.90;;;;;;5116146;27;20223;-77
2024/02/06 10:05:43;;;;;;;3.60;2.93;;;12.90;99.90;;;;;;5115401;27;20458;-76
2024/02/06 10:08:13;;;;;;;7.23;3.40;;;12.90;99.90;;;;;;5115854;27;20548;-76
2024/02/06 10:10:46;;;;;;;3.63;2.95;;;13.00;99.90;;;;;;5115250;27;20952;-77
2024/02/06 10:13:14;;;;;;;5.73;3.40;;;13.00;99.90;;;;;;5115006;27;20227;-77
2024/02/06 10:15:43;;;;;;;4.00;2.43;;;13.00;99.90;;;;;;5115060;27;20472;-78
2024/02/06 10:18:10;;;;;;;3.17;2.73;;;13.00;99.90;;;;;;5115208;27;20464;-77
2024/02/06 10:20:44;;;;;;;3.00;2.67;;;13.00;99.90;;;;;;5114820;27;20464;-78
2024/02/06 10:23:12;;;;;;;2.30;2.10;;;13.10;99.90;;;;;;5114956;27;20476;-78
2024/02/06 10:25:39;;;;;;;4.60;3.07;;;13.10;99.90;;;;;;5114772;27;20478;-78
2024/02/06 10:28:06;;;;;;;4.40;3.33;;;13.20;99.90;;;;;;5115068;27;20469;-78
2024/02/06 10:30:34;;;;;;;4.40;2.53;;;13.20;99.90;;;;;;5113742;27;20242;-78
2024/02/06 10:33:18;;;;;;;11.63;3.40;;;13.20;99.90;;;;;;5114898;27;20486;-78
2024/02/06 10:35:47;;;;;;;3.65;2.80;;;13.20;99.90;;;;;;5113383;27;20926;-78
2024/02/06 10:38:15;;;;;;;3.57;2.17;;;13.20;99.90;;;;;;5114680;27;20253;-79
2024/02/06 10:40:44;;;;;;;4.33;2.87;;;13.20;99.90;;;;;;5115786;27;20575;-79
2024/02/06 10:43:11;;;;;;;8.80;5.53;;;13.20;99.90;;;;;;5119677;27;21011;-77
2024/02/06 10:45:38;;;;;;;3.55;3.03;;;13.30;99.90;;;;;;5114405;27;20472;-77
2024/02/06 10:48:07;;;;;;;3.90;2.17;;;13.20;99.90;;;;;;5114873;27;20676;-77
2024/02/06 10:50:36;;;;;;;3.47;2.37;;;13.30;99.90;;;;;;5114144;27;20999;-77
2024/02/06 10:53:04;;;;;;;6.60;4.90;;;13.30;99.90;;;;;;5114747;27;20530;-79
2024/02/06 10:55:40;;;;;;;2.20;1.60;;;13.20;99.90;;;;;;5114295;27;20801;-79
2024/02/06 10:58:09;;;;;;;5.03;2.50;;;13.30;99.90;;;;;;5104737;27;20545;-79
2024/02/06 11:00:38;;;;;;;4.03;2.30;;;13.30;99.90;;;;;;5114290;27;20473;-77
2024/02/06 11:03:09;;;;;;;1.67;1.57;;;13.40;99.90;;;;;;5116553;27;20482;-79
2024/02/06 11:05:48;;;;;;;3.13;2.73;;;13.40;99.90;;;;;;5117085;27;20467;-79
2024/02/06 11:08:16;;;;;;;4.57;4.10;;;13.40;99.90;;;;;;5118238;27;20477;-77
2024/02/06 11:10:51;;;;;;;4.17;2.63;;;13.40;99.90;;;;;;5115295;27;20487;-79
2024/02/06 11:13:32;;;;;;;4.93;3.10;;;13.40;99.90;;;;;;5114376;27;20479;-78
2024/02/06 11:16:05;;;;;;;2.87;2.67;;;13.40;99.90;;;;;;5113986;27;20459;-79
2024/02/06 11:18:38;;;;;;;5.40;4.23;;;13.40;99.90;;;;;;5105654;27;20503;-78
2024/02/06 11:21:11;;;;;;;4.47;2.43;;;13.40;99.90;;;;;;5113187;27;20489;-79
2024/02/06 11:23:39;;;;;;;4.27;2.87;;;13.40;99.90;;;;;;5113975;27;21021;-77
2024/02/06 11:26:07;;;;;;;3.77;2.67;;;13.30;99.90;;;;;;5113796;27;20540;-79
2024/02/06 11:28:35;;;;;;;4.10;2.00;;;13.30;99.90;;;;;;5114146;27;20476;-77
2024/02/06 11:31:03;;;;;;;3.87;2.73;;;13.30;99.90;;;;;;5113478;27;20455;-77
2024/02/06 11:33:31;;;;;;;6.40;1.93;;;13.30;99.90;;;;;;5113755;27;20533;-77
2024/02/06 11:36:10;;;;;;;2.60;2.07;;;13.30;99.90;;;;;;5112074;27;20559;-77
2024/02/06 11:38:37;;;;;;;2.60;2.05;;;13.40;99.90;;;;;;5112135;27;20991;-76
2024/02/06 11:41:16;;;;;;;3.20;1.70;;;13.30;99.90;;;;;;5112638;27;20222;-77
2024/02/06 11:43:43;;;;;;;4.30;1.80;;;13.40;99.90;;;;;;5119283;27;20487;-77
2024/02/06 11:46:10;;;;;;;2.80;1.90;;;13.30;99.90;;;;;;5113476;27;20456;-78
2024/02/06 11:48:42;;;;;;;3.20;2.60;;;13.30;99.90;;;;;;5113249;27;20945;-78
2024/02/06 11:51:12;;;;;;;5.03;2.08;;;13.30;99.90;;;;;;5113219;27;20456;-78
2024/02/06 11:53:39;;;;;;;3.83;1.77;;;13.40;99.90;;;;;;5113166;27;20222;-79
2024/02/06 11:56:08;;;;;;;4.00;2.70;;;13.40;99.90;;;;;;5113086;27;20492;-78
2024/02/06 11:58:36;;;;;;;4.20;2.07;;;13.40;99.90;;;;;;5113198;27;20473;-79
2024/02/06 12:01:06;;;;;;;4.70;2.33;;;13.40;99.90;;;;;;5113399;27;20946;-79
2024/02/06 12:03:33;;;;;;;2.30;2.10;;;13.40;99.90;;;;;;5103762;27;20815;-79
2024/02/06 12:06:00;;;;;;;2.40;2.00;;;13.40;99.90;;;;;;5113038;27;20488;-79
2024/02/06 12:08:32;;;;;;;4.97;2.23;;;13.50;99.90;;;;;;5113497;27;20557;-78
2024/02/06 12:11:03;;;;;;;2.17;1.97;;;13.50;99.90;;;;;;5113389;27;20544;-79
2024/02/06 12:13:33;;;;;;;2.40;1.80;;;13.50;99.90;;;;;;5113338;27;20519;-79
2024/02/06 12:16:02;;;;;;;4.40;2.40;;;13.50;99.90;;;;;;5111213;27;20526;-79
2024/02/06 12:18:31;;;;;;;5.70;2.70;;;13.50;99.90;;;;;;5108272;27;20486;-79
2024/02/06 12:20:58;;;;;;;2.60;2.07;;;13.50;99.90;;;;;;5120217;27;20468;-77
2024/02/06 12:23:25;;;;;;;2.63;1.97;;;13.50;99.90;;;;;;5111135;27;20475;-77
2024/02/06 12:25:53;;;;;;;3.37;1.67;;;13.50;99.90;;;;;;5111435;27;20528;-77
2024/02/06 12:28:20;;;;;;;4.87;2.60;;;13.60;99.90;;;;;;5112989;27;20471;-79
2024/02/06 12:30:49;;;;;;;1.80;1.70;;;13.60;99.90;;;;;;5113161;27;20462;-79
2024/02/06 12:33:17;;;;;;;2.53;1.90;;;13.60;99.90;;;;;;5112264;27;20525;-79
2024/02/06 12:35:44;;;;;;;3.50;1.97;;;13.60;99.90;;;;;;5113118;27;20464;-77
2024/02/06 12:38:11;;;;;;;3.00;1.80;;;13.60;99.90;;;;;;5112061;27;20513;-77
2024/02/06 12:40:38;;;;;;;4.17;2.10;;;13.60;99.90;;;;;;5119119;27;20456;-77
2024/02/06 12:43:11;;;;;;;3.30;3.00;;;13.70;99.90;;;;;;5112565;27;20478;-77
2024/02/06 12:45:40;;;;;;;1.80;1.50;;;13.60;99.90;;;;;;5112997;27;20456;-77
2024/02/06 12:48:09;;;;;;;4.67;2.47;;;13.60;99.90;;;;;;5112518;27;20465;-79
2024/02/06 12:50:36;;;;;;;2.50;2.30;;;13.60;99.90;;;;;;5111329;27;20805;-79
2024/02/06 12:53:04;;;;;;;3.27;2.50;;;13.70;99.90;;;;;;5091415;28;20499;-79
2024/02/06 12:55:35;;;;;;;4.90;3.20;;;13.70;99.90;;;;;;5107013;27;20486;-77
2024/02/06 12:58:03;;;;;;;6.00;3.37;;;13.70;99.90;;;;;;5116577;27;20526;-77